createdAt,value
2022-08-19T00:09:48.223Z,18.88
2022-08-19T00:14:41.910Z,18.93
2022-08-19T00:19:36.304Z,18.95
2022-08-19T00:24:29.689Z,18.95
2022-08-19T00:29:26.748Z,18.94
2022-08-19T00:34:20.281Z,18.94
2022-08-19T00:39:16.347Z,18.92
2022-08-19T00:44:16.980Z,18.98
2022-08-19T00:49:18.316Z,18.95
2022-08-19T00:54:12.164Z,18.88
2022-08-19T00:59:09.909Z,18.83
2022-08-19T01:04:03.609Z,18.82
2022-08-19T01:08:58.446Z,18.80
2022-08-19T01:13:55.167Z,18.75
2022-08-19T01:18:50.174Z,18.79
2022-08-19T01:23:45.308Z,18.80
2022-08-19T01:28:42.295Z,18.80
2022-08-19T01:33:36.194Z,18.86
2022-08-19T01:38:32.586Z,18.83
2022-08-19T01:43:27.630Z,18.79
2022-08-19T01:48:20.980Z,18.83
2022-08-19T01:53:14.575Z,18.86
2022-08-19T01:58:13.102Z,18.89
2022-08-19T02:03:10.345Z,18.82
2022-08-19T02:08:03.853Z,18.79
2022-08-19T02:12:57.230Z,18.76
2022-08-19T02:17:50.759Z,18.79
2022-08-19T02:22:46.086Z,18.77
2022-08-19T02:27:39.740Z,18.81
2022-08-19T02:32:33.359Z,18.80
2022-08-19T02:37:45.515Z,18.81
2022-08-19T02:42:41.737Z,18.83
2022-08-19T02:47:35.406Z,18.84
2022-08-19T02:52:29.186Z,18.87
2022-08-19T02:57:23.110Z,18.85
2022-08-19T03:02:21.155Z,18.82
2022-08-19T03:07:17.425Z,18.86
2022-08-19T03:12:12.480Z,18.79
2022-08-19T03:17:06.808Z,18.84
2022-08-19T03:22:01.523Z,18.84
2022-08-19T03:26:58.745Z,18.82
2022-08-19T03:31:53.068Z,18.87
2022-08-19T03:36:48.184Z,18.84
2022-08-19T03:41:48.257Z,18.81
2022-08-19T03:46:42.396Z,18.79
2022-08-19T03:51:41.041Z,18.83
2022-08-19T03:56:36.979Z,18.80
2022-08-19T04:01:34.955Z,18.81
2022-08-19T04:06:33.505Z,18.79
2022-08-19T04:11:32.515Z,18.79
2022-08-19T04:16:39.193Z,18.73
2022-08-19T04:21:32.827Z,18.75
2022-08-19T04:26:33.023Z,18.86
2022-08-19T04:31:29.838Z,18.83
2022-08-19T04:36:28.122Z,18.87
2022-08-19T04:41:38.746Z,18.92
2022-08-19T04:46:39.254Z,18.90
2022-08-19T04:51:37.817Z,18.82
2022-08-19T04:56:31.782Z,18.81
2022-08-19T05:01:29.338Z,18.82
2022-08-19T05:06:25.828Z,18.86
2022-08-19T05:11:26.635Z,18.90
2022-08-19T05:16:24.108Z,18.86
2022-08-19T05:21:38.977Z,18.83
2022-08-19T05:26:33.659Z,18.78
2022-08-19T05:31:26.984Z,18.77
2022-08-19T05:36:20.938Z,18.76
2022-08-19T05:41:18.306Z,18.67
2022-08-19T05:46:27.986Z,18.56
2022-08-19T05:51:21.540Z,18.53
2022-08-19T05:56:18.741Z,18.42
2022-08-19T06:01:18.007Z,18.35
2022-08-19T06:06:14.604Z,18.32
2022-08-19T06:11:34.277Z,18.32
2022-08-19T06:16:31.139Z,18.43
2022-08-19T06:21:28.145Z,18.40
2022-08-19T06:26:23.229Z,18.39
2022-08-19T06:31:18.788Z,18.36
2022-08-19T06:36:25.263Z,18.43
2022-08-19T06:41:19.523Z,18.43
2022-08-19T06:46:16.056Z,18.39
2022-08-19T06:51:09.489Z,18.46
2022-08-19T06:56:04.936Z,18.56
2022-08-19T07:00:58.591Z,18.75
2022-08-19T07:05:51.984Z,18.65
2022-08-19T07:10:47.478Z,18.68
2022-08-19T07:15:42.378Z,18.60
2022-08-19T07:20:36.440Z,18.66
2022-08-19T07:25:32.364Z,18.71
2022-08-19T07:30:26.914Z,18.63
2022-08-19T07:35:21.799Z,18.56
2022-08-19T07:40:15.890Z,18.62
2022-08-19T07:45:11.057Z,18.61
2022-08-19T07:50:06.408Z,18.62
2022-08-19T07:55:04.762Z,18.63
2022-08-19T07:59:58.110Z,18.49
2022-08-19T08:05:08.838Z,18.50
2022-08-19T08:10:03.876Z,18.58
2022-08-19T08:15:02.614Z,18.54
2022-08-19T08:19:56.036Z,18.49
2022-08-19T08:24:49.359Z,18.46
2022-08-19T08:29:45.515Z,18.46
2022-08-19T08:34:39.137Z,18.58
2022-08-19T08:39:33.187Z,18.50
2022-08-19T08:44:42.176Z,18.33
2022-08-19T08:49:51.195Z,18.27
2022-08-19T08:54:49.116Z,18.31
2022-08-19T08:59:52.976Z,18.28
2022-08-19T09:04:49.371Z,18.32
2022-08-19T09:09:47.395Z,18.36
2022-08-19T09:14:52.755Z,18.30
2022-08-19T09:19:58.041Z,18.26
2022-08-19T09:24:53.234Z,18.21
2022-08-19T09:29:50.016Z,18.09
2022-08-19T09:34:50.813Z,18.16
2022-08-19T09:39:46.304Z,18.15
2022-08-19T09:44:40.218Z,18.16
2022-08-19T09:49:33.936Z,18.15
2022-08-19T09:54:27.855Z,18.13
2022-08-19T09:59:23.448Z,18.03
2022-08-19T10:04:20.286Z,17.97
2022-08-19T10:09:26.117Z,18.04
2022-08-19T10:14:28.430Z,17.99
2022-08-19T10:19:25.587Z,17.93
2022-08-19T10:24:19.844Z,17.89
2022-08-19T10:29:13.516Z,17.88
2022-08-19T10:34:30.908Z,17.77
2022-08-19T10:39:28.634Z,17.78
2022-08-19T10:44:24.924Z,17.78
2022-08-19T10:49:25.359Z,17.78
2022-08-19T10:54:33.377Z,17.99
2022-08-19T10:59:35.771Z,17.97
2022-08-19T11:04:30.815Z,18.00
2022-08-19T11:09:33.900Z,18.05
2022-08-19T11:14:29.155Z,18.01
2022-08-19T11:19:25.662Z,18.11
2022-08-19T11:24:22.768Z,17.93
2022-08-19T11:29:20.228Z,18.02
2022-08-19T11:34:18.677Z,18.02
2022-08-19T11:39:14.542Z,17.96
2022-08-19T11:44:08.770Z,18.01
2022-08-19T11:49:06.594Z,17.98
2022-08-19T11:54:02.917Z,17.82
2022-08-19T11:58:58.276Z,17.84
2022-08-19T12:03:54.854Z,17.89
2022-08-19T12:08:49.620Z,17.86
2022-08-19T12:13:45.273Z,17.77
2022-08-19T12:18:38.644Z,17.83
2022-08-19T12:23:32.392Z,17.75
2022-08-19T12:28:28.080Z,17.84
2022-08-19T12:33:25.309Z,17.92
2022-08-19T12:38:19.181Z,17.89
2022-08-19T12:43:12.725Z,17.92
2022-08-19T12:48:33.420Z,17.92
2022-08-19T12:53:22.161Z,17.90
2022-08-19T12:58:15.493Z,17.86
2022-08-19T13:03:10.189Z,17.92
2022-08-19T13:08:03.981Z,17.82
2022-08-19T13:13:00.553Z,17.91
2022-08-19T13:17:56.808Z,17.95
2022-08-19T13:22:53.029Z,18.00
2022-08-19T13:27:46.828Z,18.14
2022-08-19T13:32:57.593Z,18.07
2022-08-19T13:37:52.806Z,18.22
2022-08-19T13:42:49.910Z,18.23
2022-08-19T13:47:45.073Z,18.38
2022-08-19T13:52:38.410Z,18.34
2022-08-19T13:57:33.197Z,18.31
2022-08-19T14:02:28.217Z,18.38
2022-08-19T14:07:24.444Z,18.32
2022-08-19T14:12:28.807Z,18.32
2022-08-19T14:17:24.063Z,18.27
2022-08-19T14:22:22.116Z,18.28
2022-08-19T14:27:15.978Z,18.29
2022-08-19T14:32:11.513Z,18.28
2022-08-19T14:37:14.410Z,18.33
2022-08-19T14:42:11.509Z,18.32
2022-08-19T14:47:06.221Z,18.33
2022-08-19T14:52:03.819Z,18.39
2022-08-19T14:56:58.789Z,18.43
2022-08-19T15:01:52.551Z,18.45
2022-08-19T15:06:45.982Z,18.43
2022-08-19T15:11:39.829Z,18.53
2022-08-19T15:16:35.254Z,18.52
2022-08-19T15:21:29.864Z,18.56
2022-08-19T15:26:23.510Z,18.46
2022-08-19T15:31:25.186Z,18.46
2022-08-19T15:36:23.927Z,18.44
2022-08-19T15:41:25.045Z,18.38
2022-08-19T15:46:21.959Z,18.38
2022-08-19T15:51:15.552Z,18.34
2022-08-19T15:56:11.103Z,18.42
2022-08-19T16:01:25.488Z,18.51
2022-08-19T16:06:29.572Z,18.54
2022-08-19T16:11:29.355Z,18.54
2022-08-19T16:16:27.756Z,18.56
2022-08-19T16:21:32.040Z,18.59
2022-08-19T16:26:31.040Z,18.48
2022-08-19T16:31:27.177Z,18.59
2022-08-19T16:36:20.545Z,18.65
2022-08-19T16:41:15.357Z,18.57
2022-08-19T16:46:11.089Z,18.58
2022-08-19T16:51:08.607Z,18.51
2022-08-19T16:56:02.003Z,18.50
2022-08-19T17:00:57.817Z,18.59
2022-08-19T17:05:58.634Z,18.54
2022-08-19T17:11:16.580Z,18.47
2022-08-19T17:16:06.824Z,18.50
2022-08-19T17:21:03.294Z,18.37
2022-08-19T17:25:57.515Z,18.46
2022-08-19T17:30:51.113Z,18.35
2022-08-19T17:35:53.268Z,18.28
2022-08-19T17:40:51.689Z,18.31
2022-08-19T17:45:46.025Z,18.38
2022-08-19T17:50:44.363Z,18.42
2022-08-19T17:55:40.501Z,18.28
2022-08-19T18:00:36.730Z,18.31
2022-08-19T18:05:33.943Z,18.02
2022-08-19T18:10:35.213Z,18.05
2022-08-19T18:15:29.943Z,18.08
2022-08-19T18:20:25.341Z,17.96
2022-08-19T18:25:24.271Z,18.02
2022-08-19T18:30:17.893Z,18.02
2022-08-19T18:35:15.451Z,18.09
2022-08-19T18:40:34.500Z,18.05
2022-08-19T18:45:45.464Z,17.98
2022-08-19T18:50:41.654Z,17.91
2022-08-19T18:55:37.419Z,17.95
2022-08-19T19:00:32.780Z,18.03
2022-08-19T19:05:27.572Z,17.84
2022-08-19T19:10:21.092Z,17.96
2022-08-19T19:15:17.462Z,17.83
2022-08-19T19:20:10.923Z,17.77
2022-08-19T19:25:08.391Z,17.94
2022-08-19T19:30:01.809Z,17.94
2022-08-19T19:35:15.249Z,17.95
2022-08-19T19:40:17.042Z,17.95
2022-08-19T19:45:11.207Z,17.91
2022-08-19T19:50:18.406Z,17.95
2022-08-19T19:55:29.194Z,17.92
2022-08-19T20:00:26.281Z,17.86
2022-08-19T20:05:31.962Z,17.90
2022-08-19T20:10:30.611Z,17.77
2022-08-19T20:15:24.575Z,17.77
2022-08-19T20:20:22.403Z,17.80
2022-08-19T20:25:24.520Z,18.00
2022-08-19T20:30:39.054Z,17.95
2022-08-19T20:35:39.678Z,17.94
2022-08-19T20:40:38.490Z,17.83
2022-08-19T20:45:34.109Z,17.92
2022-08-19T20:50:30.441Z,17.97
2022-08-19T20:55:25.908Z,17.96
2022-08-19T21:00:19.564Z,17.91
2022-08-19T21:05:13.908Z,17.89
2022-08-19T21:10:09.226Z,17.81
2022-08-19T21:15:04.943Z,17.95
2022-08-19T21:19:58.318Z,18.04
2022-08-19T21:24:51.688Z,17.91
2022-08-19T21:29:45.282Z,17.92
2022-08-19T21:34:41.409Z,17.88
2022-08-19T21:39:37.311Z,17.86
2022-08-19T21:44:30.746Z,17.89
2022-08-19T21:49:24.270Z,17.90
2022-08-19T21:54:19.040Z,18.02
2022-08-19T21:59:12.411Z,17.94
2022-08-19T22:04:06.100Z,17.93
2022-08-19T22:08:59.568Z,17.84
2022-08-19T22:13:56.576Z,17.79
2022-08-19T22:18:50.687Z,17.73
2022-08-19T22:23:44.648Z,17.80
2022-08-19T22:28:38.603Z,17.82
2022-08-19T22:33:34.654Z,17.88
2022-08-19T22:38:29.840Z,17.85
2022-08-19T22:43:26.557Z,17.78
2022-08-19T22:48:23.350Z,17.64
2022-08-19T22:53:18.079Z,17.82
2022-08-19T22:58:11.479Z,17.89
2022-08-19T23:03:04.990Z,17.90
2022-08-19T23:07:59.381Z,17.88
2022-08-19T23:12:54.240Z,17.85
2022-08-19T23:17:47.696Z,17.86
2022-08-19T23:22:42.121Z,17.64
2022-08-19T23:28:07.335Z,17.70
2022-08-19T23:33:14.573Z,17.70
2022-08-19T23:38:09.432Z,17.66
2022-08-19T23:43:03.563Z,17.71
2022-08-19T23:48:03.491Z,17.66
2022-08-19T23:53:02.660Z,17.72
2022-08-19T23:57:56.751Z,17.69
